sensor_id;sensor_type;location;lat;lon;timestamp;P1;durP1;ratioP1;P2;durP2;ratioP2
46613;SDS011;32338;50.430;6.806;2022-10-03T00:00:14;17.75;;;3.42;;
46613;SDS011;32338;50.430;6.806;2022-10-03T00:03:06;16.70;;;3.92;;
46613;SDS011;32338;50.430;6.806;2022-10-03T00:05:59;11.43;;;3.45;;
46613;SDS011;32338;50.430;6.806;2022-10-03T00:08:41;15.45;;;3.00;;
46613;SDS011;32338;50.430;6.806;2022-10-03T00:11:27;10.32;;;3.47;;
46613;SDS011;32338;50.430;6.806;2022-10-03T00:14:07;11.32;;;3.25;;
46613;SDS011;32338;50.430;6.806;2022-10-03T00:16:44;12.05;;;2.95;;
46613;SDS011;32338;50.430;6.806;2022-10-03T00:19:19;11.90;;;3.20;;
46613;SDS011;32338;50.430;6.806;2022-10-03T00:22:00;12.25;;;2.85;;
46613;SDS011;32338;50.430;6.806;2022-10-03T00:24:43;10.88;;;3.25;;
46613;SDS011;32338;50.430;6.806;2022-10-03T00:27:25;10.65;;;3.05;;
46613;SDS011;32338;50.430;6.806;2022-10-03T00:30:04;10.38;;;3.42;;
46613;SDS011;32338;50.430;6.806;2022-10-03T00:32:48;6.15;;;2.88;;
46613;SDS011;32338;50.430;6.806;2022-10-03T00:35:34;6.78;;;2.72;;
46613;SDS011;32338;50.430;6.806;2022-10-03T00:44:32;10.85;;;3.05;;
46613;SDS011;32338;50.430;6.806;2022-10-03T00:47:32;14.80;;;3.10;;
46613;SDS011;32338;50.430;6.806;2022-10-03T00:50:31;7.68;;;2.83;;
46613;SDS011;32338;50.430;6.806;2022-10-03T00:53:20;11.48;;;3.03;;
46613;SDS011;32338;50.430;6.806;2022-10-03T00:56:12;15.50;;;3.28;;
46613;SDS011;32338;50.430;6.806;2022-10-03T00:58:53;5.60;;;2.53;;
46613;SDS011;32338;50.430;6.806;2022-10-03T01:01:34;5.75;;;2.97;;
46613;SDS011;32338;50.430;6.806;2022-10-03T01:04:13;16.08;;;2.65;;
46613;SDS011;32338;50.430;6.806;2022-10-03T01:06:56;13.57;;;2.80;;
46613;SDS011;32338;50.430;6.806;2022-10-03T01:09:34;11.82;;;2.90;;
46613;SDS011;32338;50.430;6.806;2022-10-03T01:12:11;8.25;;;2.55;;
46613;SDS011;32338;50.430;6.806;2022-10-03T01:14:56;11.25;;;2.63;;
46613;SDS011;32338;50.430;6.806;2022-10-03T01:17:35;11.75;;;2.50;;
46613;SDS011;32338;50.430;6.806;2022-10-03T01:26:04;11.95;;;2.60;;
46613;SDS011;32338;50.430;6.806;2022-10-03T01:28:42;11.10;;;2.53;;
46613;SDS011;32338;50.430;6.806;2022-10-03T01:31:36;9.88;;;2.80;;
46613;SDS011;32338;50.430;6.806;2022-10-03T01:34:10;10.00;;;2.25;;
46613;SDS011;32338;50.430;6.806;2022-10-03T01:36:46;10.20;;;2.25;;
46613;SDS011;32338;50.430;6.806;2022-10-03T01:39:20;11.45;;;2.10;;
46613;SDS011;32338;50.430;6.806;2022-10-03T01:41:55;11.70;;;2.83;;
46613;SDS011;32338;50.430;6.806;2022-10-03T01:44:28;15.43;;;2.70;;
46613;SDS011;32338;50.430;6.806;2022-10-03T01:47:06;9.23;;;2.47;;
46613;SDS011;32338;50.430;6.806;2022-10-03T01:49:44;7.18;;;2.03;;
46613;SDS011;32338;50.430;6.806;2022-10-03T01:52:18;13.02;;;2.42;;
46613;SDS011;32338;50.430;6.806;2022-10-03T01:54:51;13.80;;;2.38;;
46613;SDS011;32338;50.430;6.806;2022-10-03T01:57:28;9.95;;;2.67;;
46613;SDS011;32338;50.430;6.806;2022-10-03T02:00:04;8.32;;;1.90;;
46613;SDS011;32338;50.430;6.806;2022-10-03T02:02:35;15.13;;;2.63;;
46613;SDS011;32338;50.430;6.806;2022-10-03T02:05:08;5.68;;;1.80;;
46613;SDS011;32338;50.430;6.806;2022-10-03T02:07:44;11.82;;;2.30;;
46613;SDS011;32338;50.430;6.806;2022-10-03T02:10:21;7.07;;;1.83;;
46613;SDS011;32338;50.430;6.806;2022-10-03T02:12:57;7.05;;;1.83;;
46613;SDS011;32338;50.430;6.806;2022-10-03T02:15:31;12.25;;;1.95;;
46613;SDS011;32338;50.430;6.806;2022-10-03T02:18:08;7.25;;;1.80;;
46613;SDS011;32338;50.430;6.806;2022-10-03T02:20:42;4.15;;;1.60;;
46613;SDS011;32338;50.430;6.806;2022-10-03T02:23:22;8.02;;;2.05;;
46613;SDS011;32338;50.430;6.806;2022-10-03T02:26:02;7.40;;;1.92;;
46613;SDS011;32338;50.430;6.806;2022-10-03T02:28:58;8.02;;;1.20;;
46613;SDS011;32338;50.430;6.806;2022-10-03T02:32:01;13.48;;;2.50;;
46613;SDS011;32338;50.430;6.806;2022-10-03T02:34:56;10.70;;;2.15;;
46613;SDS011;32338;50.430;6.806;2022-10-03T02:37:50;10.57;;;1.80;;
46613;SDS011;32338;50.430;6.806;2022-10-03T02:44:00;9.65;;;2.63;;
46613;SDS011;32338;50.430;6.806;2022-10-03T02:47:04;6.70;;;1.83;;
46613;SDS011;32338;50.430;6.806;2022-10-03T02:59:25;7.15;;;1.55;;
46613;SDS011;32338;50.430;6.806;2022-10-03T03:02:14;8.65;;;2.00;;
46613;SDS011;32338;50.430;6.806;2022-10-03T03:05:03;7.72;;;1.60;;
46613;SDS011;32338;50.430;6.806;2022-10-03T03:11:31;5.78;;;1.40;;
46613;SDS011;32338;50.430;6.806;2022-10-03T03:14:19;3.90;;;1.48;;
46613;SDS011;32338;50.430;6.806;2022-10-03T03:17:16;5.53;;;1.30;;
46613;SDS011;32338;50.430;6.806;2022-10-03T03:22:54;6.55;;;1.13;;
46613;SDS011;32338;50.430;6.806;2022-10-03T03:25:46;5.15;;;1.40;;
46613;SDS011;32338;50.430;6.806;2022-10-03T03:28:27;5.90;;;1.42;;
46613;SDS011;32338;50.430;6.806;2022-10-03T03:31:03;3.35;;;1.02;;
46613;SDS011;32338;50.430;6.806;2022-10-03T03:33:39;4.03;;;1.35;;
46613;SDS011;32338;50.430;6.806;2022-10-03T03:36:19;9.18;;;1.10;;
46613;SDS011;32338;50.430;6.806;2022-10-03T03:38:56;8.77;;;1.40;;
46613;SDS011;32338;50.430;6.806;2022-10-03T03:41:39;8.82;;;1.73;;
46613;SDS011;32338;50.430;6.806;2022-10-03T03:47:17;16.50;;;1.30;;
46613;SDS011;32338;50.430;6.806;2022-10-03T03:50:01;5.80;;;1.60;;
46613;SDS011;32338;50.430;6.806;2022-10-03T03:52:59;10.25;;;1.70;;
46613;SDS011;32338;50.430;6.806;2022-10-03T03:55:40;7.57;;;1.60;;
46613;SDS011;32338;50.430;6.806;2022-10-03T03:58:22;7.25;;;1.52;;
46613;SDS011;32338;50.430;6.806;2022-10-03T04:01:06;5.25;;;1.20;;
46613;SDS011;32338;50.430;6.806;2022-10-03T04:03:47;8.00;;;1.55;;
46613;SDS011;32338;50.430;6.806;2022-10-03T04:06:34;11.05;;;1.73;;
46613;SDS011;32338;50.430;6.806;2022-10-03T04:09:19;3.28;;;1.17;;
46613;SDS011;32338;50.430;6.806;2022-10-03T04:12:08;4.25;;;1.42;;
46613;SDS011;32338;50.430;6.806;2022-10-03T04:14:48;8.30;;;1.50;;
46613;SDS011;32338;50.430;6.806;2022-10-03T04:17:26;7.10;;;1.40;;
46613;SDS011;32338;50.430;6.806;2022-10-03T04:20:18;2.90;;;1.50;;
46613;SDS011;32338;50.430;6.806;2022-10-03T04:23:10;4.93;;;1.10;;
46613;SDS011;32338;50.430;6.806;2022-10-03T04:25:53;5.57;;;1.15;;
46613;SDS011;32338;50.430;6.806;2022-10-03T04:28:43;2.47;;;1.17;;
46613;SDS011;32338;50.430;6.806;2022-10-03T04:31:35;2.63;;;1.33;;
46613;SDS011;32338;50.430;6.806;2022-10-03T04:34:12;4.40;;;1.23;;
46613;SDS011;32338;50.430;6.806;2022-10-03T04:36:53;4.22;;;1.17;;
46613;SDS011;32338;50.430;6.806;2022-10-03T04:39:35;4.90;;;1.10;;
46613;SDS011;32338;50.430;6.806;2022-10-03T04:42:09;4.60;;;1.30;;
46613;SDS011;32338;50.430;6.806;2022-10-03T04:44:46;5.35;;;1.60;;
46613;SDS011;32338;50.430;6.806;2022-10-03T04:47:26;6.30;;;1.38;;
46613;SDS011;32338;50.430;6.806;2022-10-03T04:49:59;4.30;;;1.38;;
46613;SDS011;32338;50.430;6.806;2022-10-03T04:52:29;5.57;;;1.40;;
46613;SDS011;32338;50.430;6.806;2022-10-03T04:55:06;9.93;;;1.38;;
46613;SDS011;32338;50.430;6.806;2022-10-03T04:57:47;5.72;;;1.20;;
46613;SDS011;32338;50.430;6.806;2022-10-03T05:00:22;4.43;;;1.17;;
46613;SDS011;32338;50.430;6.806;2022-10-03T05:02:53;9.55;;;3.08;;
46613;SDS011;32338;50.430;6.806;2022-10-03T05:08:21;6.20;;;3.00;;
46613;SDS011;32338;50.430;6.806;2022-10-03T05:11:01;4.07;;;2.10;;
46613;SDS011;32338;50.430;6.806;2022-10-03T05:13:40;5.80;;;2.50;;
46613;SDS011;32338;50.430;6.806;2022-10-03T05:16:18;3.17;;;1.83;;
46613;SDS011;32338;50.430;6.806;2022-10-03T05:18:54;4.35;;;1.90;;
46613;SDS011;32338;50.430;6.806;2022-10-03T05:21:29;1.58;;;1.48;;
46613;SDS011;32338;50.430;6.806;2022-10-03T05:24:02;5.30;;;1.48;;
46613;SDS011;32338;50.430;6.806;2022-10-03T05:26:42;5.68;;;1.67;;
46613;SDS011;32338;50.430;6.806;2022-10-03T05:29:21;4.00;;;1.40;;
46613;SDS011;32338;50.430;6.806;2022-10-03T05:31:56;4.13;;;1.55;;
46613;SDS011;32338;50.430;6.806;2022-10-03T05:34:37;5.65;;;1.30;;
46613;SDS011;32338;50.430;6.806;2022-10-03T05:37:23;2.08;;;1.50;;
46613;SDS011;32338;50.430;6.806;2022-10-03T05:40:12;2.35;;;1.48;;
46613;SDS011;32338;50.430;6.806;2022-10-03T05:42:49;1.13;;;0.98;;
46613;SDS011;32338;50.430;6.806;2022-10-03T05:45:27;4.28;;;1.23;;
46613;SDS011;32338;50.430;6.806;2022-10-03T05:48:13;2.33;;;1.15;;
46613;SDS011;32338;50.430;6.806;2022-10-03T05:50:55;9.75;;;1.70;;
46613;SDS011;32338;50.430;6.806;2022-10-03T05:57:01;5.45;;;1.50;;
46613;SDS011;32338;50.430;6.806;2022-10-03T05:59:54;4.15;;;1.70;;
46613;SDS011;32338;50.430;6.806;2022-10-03T06:05:59;2.17;;;0.93;;
46613;SDS011;32338;50.430;6.806;2022-10-03T06:08:45;2.60;;;1.23;;
46613;SDS011;32338;50.430;6.806;2022-10-03T06:17:27;2.38;;;1.40;;
46613;SDS011;32338;50.430;6.806;2022-10-03T06:20:17;3.17;;;1.30;;
46613;SDS011;32338;50.430;6.806;2022-10-03T06:23:06;1.77;;;1.23;;
46613;SDS011;32338;50.430;6.806;2022-10-03T06:25:53;4.43;;;1.27;;
46613;SDS011;32338;50.430;6.806;2022-10-03T06:32:05;1.60;;;1.50;;
46613;SDS011;32338;50.430;6.806;2022-10-03T06:34:59;3.35;;;2.70;;
46613;SDS011;32338;50.430;6.806;2022-10-03T06:44:01;8.43;;;4.88;;
46613;SDS011;32338;50.430;6.806;2022-10-03T06:49:41;9.30;;;6.90;;
46613;SDS011;32338;50.430;6.806;2022-10-03T07:07:55;7.13;;;2.22;;
46613;SDS011;32338;50.430;6.806;2022-10-03T07:10:58;3.58;;;2.30;;
46613;SDS011;32338;50.430;6.806;2022-10-03T07:19:42;4.82;;;1.80;;
46613;SDS011;32338;50.430;6.806;2022-10-03T07:28:44;8.70;;;2.00;;
46613;SDS011;32338;50.430;6.806;2022-10-03T07:31:34;7.03;;;2.10;;
46613;SDS011;32338;50.430;6.806;2022-10-03T07:34:12;5.03;;;2.03;;
46613;SDS011;32338;50.430;6.806;2022-10-03T07:37:10;6.85;;;2.10;;
46613;SDS011;32338;50.430;6.806;2022-10-03T07:40:26;10.55;;;2.78;;
46613;SDS011;32338;50.430;6.806;2022-10-03T07:46:26;4.90;;;2.17;;
46613;SDS011;32338;50.430;6.806;2022-10-03T07:49:20;7.60;;;2.88;;
46613;SDS011;32338;50.430;6.806;2022-10-03T07:52:16;8.70;;;3.97;;
46613;SDS011;32338;50.430;6.806;2022-10-03T07:55:08;4.03;;;3.28;;
46613;SDS011;32338;50.430;6.806;2022-10-03T07:57:56;7.72;;;3.05;;
46613;SDS011;32338;50.430;6.806;2022-10-03T08:00:50;6.88;;;2.75;;
46613;SDS011;32338;50.430;6.806;2022-10-03T08:03:48;3.30;;;2.83;;
46613;SDS011;32338;50.430;6.806;2022-10-03T08:06:33;11.50;;;3.05;;
46613;SDS011;32338;50.430;6.806;2022-10-03T08:09:17;5.15;;;3.15;;
46613;SDS011;32338;50.430;6.806;2022-10-03T08:15:21;5.68;;;2.47;;
46613;SDS011;32338;50.430;6.806;2022-10-03T08:17:59;5.43;;;2.22;;
46613;SDS011;32338;50.430;6.806;2022-10-03T08:20:51;6.47;;;2.88;;
46613;SDS011;32338;50.430;6.806;2022-10-03T08:26:25;10.75;;;2.53;;
46613;SDS011;32338;50.430;6.806;2022-10-03T08:29:08;9.15;;;2.65;;
46613;SDS011;32338;50.430;6.806;2022-10-03T08:32:15;7.88;;;2.97;;
46613;SDS011;32338;50.430;6.806;2022-10-03T08:35:29;10.15;;;2.80;;
46613;SDS011;32338;50.430;6.806;2022-10-03T08:50:30;4.10;;;2.53;;
46613;SDS011;32338;50.430;6.806;2022-10-03T08:56:13;8.37;;;2.07;;
46613;SDS011;32338;50.430;6.806;2022-10-03T09:05:33;8.27;;;1.45;;
46613;SDS011;32338;50.430;6.806;2022-10-03T09:17:13;7.05;;;1.95;;
46613;SDS011;32338;50.430;6.806;2022-10-03T09:20:09;14.38;;;1.75;;
46613;SDS011;32338;50.430;6.806;2022-10-03T09:22:53;12.82;;;1.45;;
46613;SDS011;32338;50.430;6.806;2022-10-03T09:25:32;6.85;;;1.27;;
46613;SDS011;32338;50.430;6.806;2022-10-03T09:28:22;8.07;;;1.00;;
46613;SDS011;32338;50.430;6.806;2022-10-03T09:31:09;12.77;;;1.00;;
46613;SDS011;32338;50.430;6.806;2022-10-03T09:43:00;6.50;;;0.90;;
46613;SDS011;32338;50.430;6.806;2022-10-03T09:45:54;4.95;;;0.60;;
46613;SDS011;32338;50.430;6.806;2022-10-03T09:48:48;5.43;;;0.63;;
46613;SDS011;32338;50.430;6.806;2022-10-03T09:51:40;9.07;;;0.93;;
46613;SDS011;32338;50.430;6.806;2022-10-03T10:00:30;4.15;;;0.70;;
46613;SDS011;32338;50.430;6.806;2022-10-03T10:03:22;5.13;;;0.77;;
46613;SDS011;32338;50.430;6.806;2022-10-03T10:06:33;4.43;;;1.10;;
46613;SDS011;32338;50.430;6.806;2022-10-03T10:15:47;5.32;;;0.70;;
46613;SDS011;32338;50.430;6.806;2022-10-03T10:18:46;2.83;;;0.63;;
46613;SDS011;32338;50.430;6.806;2022-10-03T10:21:36;1.95;;;0.75;;
46613;SDS011;32338;50.430;6.806;2022-10-03T10:24:18;2.35;;;0.65;;
46613;SDS011;32338;50.430;6.806;2022-10-03T10:30:19;5.88;;;0.82;;
46613;SDS011;32338;50.430;6.806;2022-10-03T10:36:08;4.63;;;0.70;;
46613;SDS011;32338;50.430;6.806;2022-10-03T10:39:09;6.72;;;0.52;;
46613;SDS011;32338;50.430;6.806;2022-10-03T10:42:14;3.67;;;0.40;;
46613;SDS011;32338;50.430;6.806;2022-10-03T10:48:09;3.50;;;0.55;;
46613;SDS011;32338;50.430;6.806;2022-10-03T11:18:27;6.55;;;0.77;;
46613;SDS011;32338;50.430;6.806;2022-10-03T11:21:28;6.03;;;0.63;;
46613;SDS011;32338;50.430;6.806;2022-10-03T11:24:35;5.20;;;0.90;;
46613;SDS011;32338;50.430;6.806;2022-10-03T11:36:51;3.92;;;0.60;;
46613;SDS011;32338;50.430;6.806;2022-10-03T11:39:33;7.45;;;0.70;;
46613;SDS011;32338;50.430;6.806;2022-10-03T11:42:10;2.13;;;0.50;;
46613;SDS011;32338;50.430;6.806;2022-10-03T11:44:48;4.78;;;0.80;;
46613;SDS011;32338;50.430;6.806;2022-10-03T11:47:27;7.38;;;0.60;;
46613;SDS011;32338;50.430;6.806;2022-10-03T11:50:28;6.15;;;0.50;;
46613;SDS011;32338;50.430;6.806;2022-10-03T11:53:24;5.10;;;0.73;;
46613;SDS011;32338;50.430;6.806;2022-10-03T11:56:25;4.60;;;0.55;;
46613;SDS011;32338;50.430;6.806;2022-10-03T11:59:03;4.82;;;0.75;;
46613;SDS011;32338;50.430;6.806;2022-10-03T12:01:55;4.47;;;0.63;;
46613;SDS011;32338;50.430;6.806;2022-10-03T12:04:35;3.75;;;0.70;;
46613;SDS011;32338;50.430;6.806;2022-10-03T12:07:16;3.85;;;0.57;;
46613;SDS011;32338;50.430;6.806;2022-10-03T12:10:27;3.00;;;0.45;;
46613;SDS011;32338;50.430;6.806;2022-10-03T12:13:03;2.75;;;0.80;;
46613;SDS011;32338;50.430;6.806;2022-10-03T12:15:38;4.00;;;0.40;;
46613;SDS011;32338;50.430;6.806;2022-10-03T12:18:09;5.38;;;0.80;;
46613;SDS011;32338;50.430;6.806;2022-10-03T12:20:46;4.38;;;0.70;;
46613;SDS011;32338;50.430;6.806;2022-10-03T12:23:29;5.40;;;0.95;;
46613;SDS011;32338;50.430;6.806;2022-10-03T12:26:11;2.40;;;0.60;;
46613;SDS011;32338;50.430;6.806;2022-10-03T12:28:42;8.27;;;0.70;;
46613;SDS011;32338;50.430;6.806;2022-10-03T12:31:17;4.00;;;0.77;;
46613;SDS011;32338;50.430;6.806;2022-10-03T12:33:50;4.32;;;0.75;;
46613;SDS011;32338;50.430;6.806;2022-10-03T12:36:23;3.28;;;0.50;;
46613;SDS011;32338;50.430;6.806;2022-10-03T12:39:00;2.33;;;0.52;;
46613;SDS011;32338;50.430;6.806;2022-10-03T12:41:48;5.65;;;0.70;;
46613;SDS011;32338;50.430;6.806;2022-10-03T12:44:28;4.00;;;0.80;;
46613;SDS011;32338;50.430;6.806;2022-10-03T12:47:10;4.18;;;0.63;;
46613;SDS011;32338;50.430;6.806;2022-10-03T12:49:51;2.40;;;0.30;;
46613;SDS011;32338;50.430;6.806;2022-10-03T12:52:22;6.90;;;0.60;;
46613;SDS011;32338;50.430;6.806;2022-10-03T12:54:57;2.03;;;0.50;;
46613;SDS011;32338;50.430;6.806;2022-10-03T12:57:43;3.83;;;0.93;;
46613;SDS011;32338;50.430;6.806;2022-10-03T13:00:17;2.47;;;0.50;;
46613;SDS011;32338;50.430;6.806;2022-10-03T13:02:53;11.27;;;0.93;;
46613;SDS011;32338;50.430;6.806;2022-10-03T13:05:34;4.60;;;0.50;;
46613;SDS011;32338;50.430;6.806;2022-10-03T13:08:14;3.03;;;0.45;;
46613;SDS011;32338;50.430;6.806;2022-10-03T13:10:54;1.83;;;0.50;;
46613;SDS011;32338;50.430;6.806;2022-10-03T13:16:07;3.97;;;0.50;;
46613;SDS011;32338;50.430;6.806;2022-10-03T13:18:45;4.60;;;0.68;;
46613;SDS011;32338;50.430;6.806;2022-10-03T13:21:23;5.53;;;0.60;;
46613;SDS011;32338;50.430;6.806;2022-10-03T13:24:01;3.58;;;0.45;;
46613;SDS011;32338;50.430;6.806;2022-10-03T13:26:41;5.95;;;0.60;;
46613;SDS011;32338;50.430;6.806;2022-10-03T13:29:19;2.38;;;0.77;;
46613;SDS011;32338;50.430;6.806;2022-10-03T13:31:53;4.32;;;0.93;;
46613;SDS011;32338;50.430;6.806;2022-10-03T13:34:30;6.22;;;0.75;;
46613;SDS011;32338;50.430;6.806;2022-10-03T13:37:02;3.95;;;0.40;;
46613;SDS011;32338;50.430;6.806;2022-10-03T13:39:36;3.63;;;0.40;;
46613;SDS011;32338;50.430;6.806;2022-10-03T13:42:15;4.55;;;0.70;;
46613;SDS011;32338;50.430;6.806;2022-10-03T13:44:46;3.03;;;0.63;;
46613;SDS011;32338;50.430;6.806;2022-10-03T13:47:34;3.72;;;0.50;;
46613;SDS011;32338;50.430;6.806;2022-10-03T13:50:12;4.43;;;0.70;;
46613;SDS011;32338;50.430;6.806;2022-10-03T13:52:44;3.10;;;0.50;;
46613;SDS011;32338;50.430;6.806;2022-10-03T13:55:21;3.30;;;0.57;;
46613;SDS011;32338;50.430;6.806;2022-10-03T13:58:00;5.20;;;0.90;;
46613;SDS011;32338;50.430;6.806;2022-10-03T14:00:45;6.32;;;0.63;;
46613;SDS011;32338;50.430;6.806;2022-10-03T14:03:30;2.13;;;0.70;;
46613;SDS011;32338;50.430;6.806;2022-10-03T14:06:10;2.05;;;0.73;;
46613;SDS011;32338;50.430;6.806;2022-10-03T14:08:50;6.82;;;1.45;;
46613;SDS011;32338;50.430;6.806;2022-10-03T14:11:32;6.97;;;1.02;;
46613;SDS011;32338;50.430;6.806;2022-10-03T14:17:18;3.78;;;0.52;;
46613;SDS011;32338;50.430;6.806;2022-10-03T14:19:57;3.80;;;0.77;;
46613;SDS011;32338;50.430;6.806;2022-10-03T14:22:39;5.80;;;0.50;;
46613;SDS011;32338;50.430;6.806;2022-10-03T14:25:20;3.83;;;0.70;;
46613;SDS011;32338;50.430;6.806;2022-10-03T14:27:51;2.75;;;0.45;;
46613;SDS011;32338;50.430;6.806;2022-10-03T14:30:22;5.47;;;0.73;;
46613;SDS011;32338;50.430;6.806;2022-10-03T14:32:58;3.72;;;0.50;;
46613;SDS011;32338;50.430;6.806;2022-10-03T14:35:35;6.47;;;0.75;;
46613;SDS011;32338;50.430;6.806;2022-10-03T14:38:14;2.90;;;0.60;;
46613;SDS011;32338;50.430;6.806;2022-10-03T14:41:09;7.13;;;0.60;;
46613;SDS011;32338;50.430;6.806;2022-10-03T14:43:44;3.40;;;0.98;;
46613;SDS011;32338;50.430;6.806;2022-10-03T14:46:16;7.85;;;1.23;;
46613;SDS011;32338;50.430;6.806;2022-10-03T14:48:45;4.00;;;0.73;;
46613;SDS011;32338;50.430;6.806;2022-10-03T14:51:15;6.95;;;0.90;;
46613;SDS011;32338;50.430;6.806;2022-10-03T14:53:50;3.67;;;0.50;;
46613;SDS011;32338;50.430;6.806;2022-10-03T14:56:19;4.60;;;0.60;;
46613;SDS011;32338;50.430;6.806;2022-10-03T14:58:49;5.85;;;0.68;;
46613;SDS011;32338;50.430;6.806;2022-10-03T15:01:19;7.65;;;0.70;;
46613;SDS011;32338;50.430;6.806;2022-10-03T15:03:53;5.05;;;0.63;;
46613;SDS011;32338;50.430;6.806;2022-10-03T15:09:21;5.35;;;0.90;;
46613;SDS011;32338;50.430;6.806;2022-10-03T15:11:51;2.78;;;0.50;;
46613;SDS011;32338;50.430;6.806;2022-10-03T15:14:22;1.75;;;0.65;;
46613;SDS011;32338;50.430;6.806;2022-10-03T15:16:54;2.90;;;0.60;;
46613;SDS011;32338;50.430;6.806;2022-10-03T15:19:23;3.85;;;1.08;;
46613;SDS011;32338;50.430;6.806;2022-10-03T15:21:54;1.65;;;0.50;;
46613;SDS011;32338;50.430;6.806;2022-10-03T15:24:30;3.83;;;0.65;;
46613;SDS011;32338;50.430;6.806;2022-10-03T15:26:59;3.28;;;0.73;;
46613;SDS011;32338;50.430;6.806;2022-10-03T15:29:29;5.22;;;0.80;;
46613;SDS011;32338;50.430;6.806;2022-10-03T15:31:59;2.05;;;0.47;;
46613;SDS011;32338;50.430;6.806;2022-10-03T15:34:30;4.18;;;0.57;;
46613;SDS011;32338;50.430;6.806;2022-10-03T15:37:03;4.45;;;0.70;;
46613;SDS011;32338;50.430;6.806;2022-10-03T15:39:38;3.90;;;0.90;;
46613;SDS011;32338;50.430;6.806;2022-10-03T15:42:14;5.78;;;0.68;;
46613;SDS011;32338;50.430;6.806;2022-10-03T15:44:48;2.42;;;0.80;;
46613;SDS011;32338;50.430;6.806;2022-10-03T15:47:19;3.55;;;0.77;;
46613;SDS011;32338;50.430;6.806;2022-10-03T15:49:48;4.50;;;0.90;;
46613;SDS011;32338;50.430;6.806;2022-10-03T15:52:22;2.53;;;0.73;;
46613;SDS011;32338;50.430;6.806;2022-10-03T15:54:57;4.80;;;0.60;;
46613;SDS011;32338;50.430;6.806;2022-10-03T15:57:27;8.82;;;0.80;;
46613;SDS011;32338;50.430;6.806;2022-10-03T15:59:57;3.90;;;0.45;;
46613;SDS011;32338;50.430;6.806;2022-10-03T16:02:28;2.88;;;0.60;;
46613;SDS011;32338;50.430;6.806;2022-10-03T16:04:58;5.78;;;1.25;;
46613;SDS011;32338;50.430;6.806;2022-10-03T16:07:30;6.50;;;0.60;;
46613;SDS011;32338;50.430;6.806;2022-10-03T16:10:09;2.08;;;0.90;;
46613;SDS011;32338;50.430;6.806;2022-10-03T16:12:45;4.80;;;0.60;;
46613;SDS011;32338;50.430;6.806;2022-10-03T16:15:20;2.30;;;0.60;;
46613;SDS011;32338;50.430;6.806;2022-10-03T16:17:53;3.08;;;0.55;;
46613;SDS011;32338;50.430;6.806;2022-10-03T16:20:23;4.28;;;0.70;;
46613;SDS011;32338;50.430;6.806;2022-10-03T16:22:54;6.63;;;0.70;;
46613;SDS011;32338;50.430;6.806;2022-10-03T16:25:23;1.80;;;0.60;;
46613;SDS011;32338;50.430;6.806;2022-10-03T16:27:55;3.67;;;0.60;;
46613;SDS011;32338;50.430;6.806;2022-10-03T16:30:26;3.25;;;0.70;;
46613;SDS011;32338;50.430;6.806;2022-10-03T16:32:59;4.53;;;0.50;;
46613;SDS011;32338;50.430;6.806;2022-10-03T16:35:33;6.82;;;0.52;;
46613;SDS011;32338;50.430;6.806;2022-10-03T16:38:03;3.72;;;0.80;;
46613;SDS011;32338;50.430;6.806;2022-10-03T16:40:33;4.78;;;0.90;;
46613;SDS011;32338;50.430;6.806;2022-10-03T16:43:02;3.70;;;0.88;;
46613;SDS011;32338;50.430;6.806;2022-10-03T16:45:34;1.42;;;0.50;;
46613;SDS011;32338;50.430;6.806;2022-10-03T16:48:10;5.75;;;0.82;;
46613;SDS011;32338;50.430;6.806;2022-10-03T16:50:59;3.60;;;1.08;;
46613;SDS011;32338;50.430;6.806;2022-10-03T16:53:27;6.38;;;1.65;;
46613;SDS011;32338;50.430;6.806;2022-10-03T16:55:54;1.63;;;0.50;;
46613;SDS011;32338;50.430;6.806;2022-10-03T16:58:26;4.40;;;0.60;;
46613;SDS011;32338;50.430;6.806;2022-10-03T17:00:56;1.92;;;0.55;;
46613;SDS011;32338;50.430;6.806;2022-10-03T17:03:28;4.68;;;1.15;;
46613;SDS011;32338;50.430;6.806;2022-10-03T17:06:00;5.63;;;0.57;;
46613;SDS011;32338;50.430;6.806;2022-10-03T17:08:30;8.48;;;0.70;;
46613;SDS011;32338;50.430;6.806;2022-10-03T17:11:02;1.77;;;0.63;;
46613;SDS011;32338;50.430;6.806;2022-10-03T17:13:36;2.65;;;0.70;;
46613;SDS011;32338;50.430;6.806;2022-10-03T17:16:10;2.97;;;0.65;;
46613;SDS011;32338;50.430;6.806;2022-10-03T17:18:43;4.50;;;0.77;;
46613;SDS011;32338;50.430;6.806;2022-10-03T17:21:21;6.53;;;0.98;;
46613;SDS011;32338;50.430;6.806;2022-10-03T17:23:52;3.13;;;0.55;;
46613;SDS011;32338;50.430;6.806;2022-10-03T17:26:31;4.93;;;0.80;;
46613;SDS011;32338;50.430;6.806;2022-10-03T17:29:05;3.30;;;0.70;;
46613;SDS011;32338;50.430;6.806;2022-10-03T17:31:40;2.03;;;0.80;;
46613;SDS011;32338;50.430;6.806;2022-10-03T17:34:13;2.72;;;0.60;;
46613;SDS011;32338;50.430;6.806;2022-10-03T17:36:49;7.43;;;0.70;;
46613;SDS011;32338;50.430;6.806;2022-10-03T17:39:42;4.35;;;0.82;;
46613;SDS011;32338;50.430;6.806;2022-10-03T17:42:23;8.15;;;1.17;;
46613;SDS011;32338;50.430;6.806;2022-10-03T17:44:57;3.33;;;0.80;;
46613;SDS011;32338;50.430;6.806;2022-10-03T17:47:31;6.15;;;0.70;;
46613;SDS011;32338;50.430;6.806;2022-10-03T17:50:08;1.70;;;0.70;;
46613;SDS011;32338;50.430;6.806;2022-10-03T17:52:39;3.13;;;1.08;;
46613;SDS011;32338;50.430;6.806;2022-10-03T17:55:10;7.15;;;0.70;;
46613;SDS011;32338;50.430;6.806;2022-10-03T17:57:43;11.10;;;1.17;;
46613;SDS011;32338;50.430;6.806;2022-10-03T18:00:18;6.40;;;0.77;;
46613;SDS011;32338;50.430;6.806;2022-10-03T18:02:50;2.80;;;0.70;;
46613;SDS011;32338;50.430;6.806;2022-10-03T18:05:25;4.10;;;1.27;;
46613;SDS011;32338;50.430;6.806;2022-10-03T18:07:58;4.70;;;1.30;;
46613;SDS011;32338;50.430;6.806;2022-10-03T18:10:30;6.55;;;0.80;;
46613;SDS011;32338;50.430;6.806;2022-10-03T18:13:06;4.80;;;1.33;;
46613;SDS011;32338;50.430;6.806;2022-10-03T18:15:42;6.35;;;1.05;;
46613;SDS011;32338;50.430;6.806;2022-10-03T18:27:28;9.38;;;0.80;;
46613;SDS011;32338;50.430;6.806;2022-10-03T18:30:15;5.45;;;0.90;;
46613;SDS011;32338;50.430;6.806;2022-10-03T18:32:46;7.63;;;1.00;;
46613;SDS011;32338;50.430;6.806;2022-10-03T18:35:16;6.55;;;0.90;;
46613;SDS011;32338;50.430;6.806;2022-10-03T18:37:51;3.47;;;1.08;;
46613;SDS011;32338;50.430;6.806;2022-10-03T18:40:21;4.32;;;1.10;;
46613;SDS011;32338;50.430;6.806;2022-10-03T18:42:52;7.20;;;0.90;;
46613;SDS011;32338;50.430;6.806;2022-10-03T18:45:20;2.47;;;1.20;;
46613;SDS011;32338;50.430;6.806;2022-10-03T18:47:53;8.13;;;0.82;;
46613;SDS011;32338;50.430;6.806;2022-10-03T18:50:25;4.00;;;0.90;;
46613;SDS011;32338;50.430;6.806;2022-10-03T18:52:57;7.38;;;3.67;;
46613;SDS011;32338;50.430;6.806;2022-10-03T18:55:40;5.07;;;1.60;;
46613;SDS011;32338;50.430;6.806;2022-10-03T18:58:15;3.78;;;1.80;;
46613;SDS011;32338;50.430;6.806;2022-10-03T19:00:46;5.97;;;2.10;;
46613;SDS011;32338;50.430;6.806;2022-10-03T19:03:18;4.38;;;2.35;;
46613;SDS011;32338;50.430;6.806;2022-10-03T19:05:52;14.98;;;2.50;;
46613;SDS011;32338;50.430;6.806;2022-10-03T19:08:26;5.55;;;2.05;;
46613;SDS011;32338;50.430;6.806;2022-10-03T19:10:58;4.45;;;2.30;;
46613;SDS011;32338;50.430;6.806;2022-10-03T19:13:28;5.13;;;1.60;;
46613;SDS011;32338;50.430;6.806;2022-10-03T19:16:04;4.90;;;1.73;;
46613;SDS011;32338;50.430;6.806;2022-10-03T19:18:40;2.25;;;1.30;;
46613;SDS011;32338;50.430;6.806;2022-10-03T19:21:10;2.03;;;0.95;;
46613;SDS011;32338;50.430;6.806;2022-10-03T19:23:44;3.45;;;1.30;;
46613;SDS011;32338;50.430;6.806;2022-10-03T19:26:18;5.50;;;1.75;;
46613;SDS011;32338;50.430;6.806;2022-10-03T19:28:48;5.45;;;1.67;;
46613;SDS011;32338;50.430;6.806;2022-10-03T19:31:18;3.97;;;1.17;;
46613;SDS011;32338;50.430;6.806;2022-10-03T19:33:50;5.95;;;1.60;;
46613;SDS011;32338;50.430;6.806;2022-10-03T19:36:21;4.43;;;1.70;;
46613;SDS011;32338;50.430;6.806;2022-10-03T19:38:53;4.65;;;1.38;;